Time;durP1;ratioP1;P1;durP2;ratioP2;P2;SDS_P1;SDS_P2;PMS_P1;PMS_P2;Temp;Humidity;BMP_temperature;BMP_pressure;BME280_temperature;BME280_humidity;BME280_pressure;Samples;Min_cycle;Max_cycle;Signal;HPM_P1;HPM_P2
2020/12/20 00:00:59;;;;;;;10.07;5.97;;;;;;;7.98;100.00;100793.50;4950087;28;20413;-50
2020/12/20 00:03:27;;;;;;;14.50;5.55;;;;;;;8.04;100.00;100795.59;4950007;28;20055;-51
2020/12/20 00:05:54;;;;;;;7.65;4.68;;;;;;;7.97;100.00;100797.16;4947576;28;20051;-52
2020/12/20 00:08:23;;;;;;;8.75;5.13;;;;;;;7.92;100.00;100798.44;4946311;28;20059;-53
2020/12/20 00:10:50;;;;;;;11.70;5.28;;;;;;;7.89;100.00;100803.22;4948392;28;20423;-54
2020/12/20 00:13:18;;;;;;;7.57;4.97;;;;;;;7.81;100.00;100801.28;4945872;28;20422;-51
2020/12/20 00:15:45;;;;;;;11.05;4.75;;;;;;;7.78;100.00;100801.56;4946123;28;20053;-54
2020/12/20 00:18:12;;;;;;;12.50;5.05;;;;;;;7.76;100.00;100793.72;4948004;28;20348;-50
2020/12/20 00:20:39;;;;;;;11.38;5.65;;;;;;;7.84;100.00;100798.34;4948043;28;20043;-52
2020/12/20 00:23:06;;;;;;;12.13;6.13;;;;;;;7.98;100.00;100796.16;4949910;28;20047;-51
2020/12/20 00:25:33;;;;;;;9.10;4.55;;;;;;;7.98;100.00;100801.50;4946367;28;20042;-52
2020/12/20 00:28:00;;;;;;;16.10;4.90;;;;;;;8.08;100.00;100797.81;4948224;28;20058;-54
2020/12/20 00:30:28;;;;;;;10.07;4.13;;;;;;;8.15;100.00;100795.41;4950252;28;20047;-54
2020/12/20 00:32:55;;;;;;;11.77;4.50;;;;;;;8.24;100.00;100813.13;4947304;28;20135;-53
2020/12/20 00:35:22;;;;;;;12.55;6.10;;;;;;;8.31;100.00;100800.06;4945906;28;20066;-52
2020/12/20 00:37:50;;;;;;;14.82;4.50;;;;;;;8.42;100.00;100809.66;4947647;28;20494;-51
2020/12/20 00:40:17;;;;;;;10.55;4.32;;;;;;;8.38;100.00;100814.47;4946811;28;20047;-51
2020/12/20 00:42:44;;;;;;;12.27;3.90;;;;;;;8.47;100.00;100804.78;4945855;28;20043;-53
2020/12/20 00:45:11;;;;;;;10.65;4.35;;;;;;;8.42;100.00;100807.00;4949736;28;20332;-50
2020/12/20 00:47:38;;;;;;;13.60;4.57;;;;;;;8.25;100.00;100809.50;4950055;28;20047;-51
2020/12/20 00:50:05;;;;;;;20.98;5.05;;;;;;;8.42;100.00;100810.50;4950517;28;20518;-51
2020/12/20 00:52:32;;;;;;;9.43;3.88;;;;;;;8.44;100.00;100818.34;4947636;28;20052;-52
2020/12/20 00:54:59;;;;;;;10.68;4.38;;;;;;;8.28;100.00;100814.50;4947085;28;20062;-53
2020/12/20 00:57:26;;;;;;;18.48;4.65;;;;;;;8.33;100.00;100813.22;4948489;28;20579;-52
2020/12/20 00:59:56;;;;;;;13.70;4.88;;;;;;;8.32;100.00;100822.19;4951491;28;20047;-51
2020/12/20 01:02:23;;;;;;;11.40;4.22;;;;;;;8.23;100.00;100822.09;4946234;28;20055;-52
2020/12/20 01:04:50;;;;;;;12.68;4.15;;;;;;;8.18;100.00;100823.50;4948061;28;20149;-54
2020/12/20 01:07:20;;;;;;;8.82;3.75;;;;;;;8.23;100.00;100823.91;4948584;28;20082;-51
2020/12/20 01:09:47;;;;;;;13.75;4.78;;;;;;;8.04;100.00;100819.53;4946957;28;20150;-52
2020/12/20 01:12:15;;;;;;;13.10;4.65;;;;;;;8.20;100.00;100819.72;4948785;28;21022;-50
2020/12/20 01:14:42;;;;;;;11.65;4.50;;;;;;;8.16;100.00;100818.34;4946580;28;20062;-52
2020/12/20 01:17:09;;;;;;;11.10;4.43;;;;;;;8.16;100.00;100818.34;4947430;28;20047;-51
2020/12/20 01:19:39;;;;;;;15.85;5.45;;;;;;;8.00;100.00;100812.84;4948227;28;20039;-53
2020/12/20 01:22:07;;;;;;;13.23;5.03;;;;;;;8.01;100.00;100810.03;4947925;28;20138;-50
2020/12/20 01:24:34;;;;;;;9.88;5.15;;;;;;;7.93;100.00;100810.75;4945843;28;20460;-50
2020/12/20 01:27:01;;;;;;;14.02;4.20;;;;;;;7.98;100.00;100817.44;4947115;28;20043;-50
2020/12/20 01:29:28;;;;;;;14.05;4.95;;;;;;;7.81;100.00;100822.56;4948755;28;20328;-50
2020/12/20 01:31:55;;;;;;;14.13;4.50;;;;;;;7.74;100.00;100818.81;4944884;28;20047;-50
2020/12/20 01:34:22;;;;;;;13.77;5.10;;;;;;;7.82;100.00;100823.38;4943844;28;20079;-51
2020/12/20 01:36:50;;;;;;;15.60;4.95;;;;;;;7.68;100.00;100816.72;4947321;28;20354;-50
2020/12/20 01:39:18;;;;;;;11.23;4.75;;;;;;;7.76;100.00;100827.47;4948156;28;20047;-50
2020/12/20 01:41:45;;;;;;;9.93;4.82;;;;;;;7.70;100.00;100830.72;4944537;28;20051;-50
2020/12/20 01:44:12;;;;;;;10.30;5.38;;;;;;;7.70;100.00;100828.06;4944957;28;20090;-50
2020/12/20 01:46:42;;;;;;;12.00;4.80;;;;;;;7.63;100.00;100835.75;4946496;28;20048;-52
2020/12/20 01:49:10;;;;;;;15.27;5.07;;;;;;;7.62;100.00;100822.59;4944960;28;20051;-52
2020/12/20 01:51:38;;;;;;;10.02;4.85;;;;;;;7.62;100.00;100834.06;4948898;28;20340;-52
2020/12/20 01:54:06;;;;;;;10.43;4.57;;;;;;;7.57;100.00;100831.84;4944771;28;20360;-51
2020/12/20 01:56:35;;;;;;;12.60;4.85;;;;;;;7.46;100.00;100829.34;4947724;28;20035;-52
2020/12/20 01:59:03;;;;;;;14.60;6.07;;;;;;;7.39;100.00;100822.94;4948510;28;20108;-50
2020/12/20 02:01:30;;;;;;;16.58;5.80;;;;;;;7.44;100.00;100830.47;4945455;28;20842;-51
2020/12/20 02:03:58;;;;;;;10.55;5.13;;;;;;;7.44;100.00;100831.28;4947462;28;20441;-51
2020/12/20 02:06:25;;;;;;;14.00;5.95;;;;;;;7.31;100.00;100825.44;4947395;28;20047;-50
2020/12/20 02:08:52;;;;;;;12.75;5.43;;;;;;;7.31;100.00;100822.78;4943354;28;20043;-53
2020/12/20 02:11:19;;;;;;;12.55;5.15;;;;;;;7.32;100.00;100813.84;4946764;28;20379;-49
2020/12/20 02:13:48;;;;;;;15.13;5.85;;;;;;;7.28;100.00;100820.44;4946846;28;20352;-50
2020/12/20 02:16:16;;;;;;;17.30;6.30;;;;;;;7.21;100.00;100814.84;4946308;28;20044;-50
2020/12/20 02:18:44;;;;;;;16.48;6.00;;;;;;;7.20;100.00;100814.00;4945327;28;20049;-53
2020/12/20 02:21:13;;;;;;;12.15;5.38;;;;;;;7.26;100.00;100819.72;4949389;28;20054;-53
2020/12/20 02:23:41;;;;;;;12.30;5.43;;;;;;;7.24;100.00;100812.75;4943801;28;20040;-51
2020/12/20 02:26:10;;;;;;;12.70;5.68;;;;;;;7.23;100.00;100819.03;4946365;28;20047;-50
2020/12/20 02:28:37;;;;;;;14.68;5.57;;;;;;;7.27;100.00;100819.56;4941879;28;20258;-50
2020/12/20 02:31:04;;;;;;;11.88;5.55;;;;;;;7.21;100.00;100817.50;4947650;28;20051;-49
2020/12/20 02:33:32;;;;;;;15.82;5.97;;;;;;;7.19;100.00;100819.47;4946167;28;20070;-51
2020/12/20 02:36:00;;;;;;;18.55;6.32;;;;;;;7.07;100.00;100819.59;4946265;28;20427;-51
2020/12/20 02:38:29;;;;;;;17.17;7.10;;;;;;;7.17;100.00;100819.59;4949291;28;20074;-50
2020/12/20 02:40:56;;;;;;;14.48;5.82;;;;;;;7.13;100.00;100823.53;4943799;28;20050;-53
2020/12/20 02:43:23;;;;;;;16.83;6.05;;;;;;;7.18;100.00;100821.25;4944358;28;20062;-51
2020/12/20 02:45:52;;;;;;;14.43;6.28;;;;;;;7.28;100.00;100809.81;4946036;28;20031;-49
2020/12/20 02:48:19;;;;;;;13.70;6.28;;;;;;;7.22;100.00;100817.34;4947602;28;20047;-53
2020/12/20 02:50:46;;;;;;;17.90;7.07;;;;;;;7.15;100.00;100826.84;4944244;28;20043;-51
2020/12/20 02:53:13;;;;;;;19.70;6.28;;;;;;;7.20;100.00;100811.34;4945546;28;20078;-51
2020/12/20 02:55:41;;;;;;;16.67;6.03;;;;;;;7.11;100.00;100825.47;4941701;28;20050;-52
2020/12/20 02:58:08;;;;;;;17.13;6.13;;;;;;;7.08;100.00;100820.44;4944217;28;20039;-53
2020/12/20 03:00:36;;;;;;;16.52;6.50;;;;;;;6.99;100.00;100815.94;4949412;28;20051;-51
2020/12/20 03:03:03;;;;;;;14.82;6.15;;;;;;;7.07;100.00;100822.25;4942992;28;20435;-52
2020/12/20 03:05:30;;;;;;;13.88;6.57;;;;;;;7.02;100.00;100828.97;4947782;28;20043;-52
2020/12/20 03:07:58;;;;;;;16.33;6.25;;;;;;;7.00;100.00;100833.56;4944858;28;20489;-51
2020/12/20 03:10:25;;;;;;;15.20;6.60;;;;;;;7.10;100.00;100826.44;4944047;28;20102;-51
2020/12/20 03:12:53;;;;;;;12.02;6.45;;;;;;;7.03;100.00;100833.28;4943390;28;20043;-50
2020/12/20 03:15:20;;;;;;;13.70;6.28;;;;;;;7.02;100.00;100827.16;4946080;28;20454;-53
2020/12/20 03:17:47;;;;;;;14.00;6.47;;;;;;;6.85;100.00;100828.69;4946173;28;20137;-50
2020/12/20 03:20:14;;;;;;;17.75;6.50;;;;;;;6.89;100.00;100832.72;4947494;28;20055;-50
2020/12/20 03:22:41;;;;;;;10.80;5.80;;;;;;;6.98;100.00;100830.22;4944817;28;20043;-51
2020/12/20 03:25:09;;;;;;;12.48;6.65;;;;;;;6.91;100.00;100835.25;4945383;28;20458;-53
2020/12/20 03:27:35;;;;;;;15.88;6.63;;;;;;;6.91;100.00;100845.88;4948723;28;20043;-53
2020/12/20 03:30:05;;;;;;;16.42;7.78;;;;;;;6.77;100.00;100843.63;4942708;28;20428;-52
2020/12/20 03:32:32;;;;;;;13.80;6.18;;;;;;;6.88;100.00;100838.19;4944736;28;20063;-51
2020/12/20 03:34:59;;;;;;;13.70;6.47;;;;;;;6.81;100.00;100845.03;4943513;28;20336;-51
2020/12/20 03:37:27;;;;;;;19.30;6.40;;;;;;;6.87;100.00;100845.28;4952660;28;20308;-52
2020/12/20 03:39:54;;;;;;;14.32;6.47;;;;;;;7.09;100.00;100847.81;4948666;28;20043;-52
2020/12/20 03:42:21;;;;;;;16.05;6.53;;;;;;;7.10;100.00;100845.03;4947992;28;20047;-53
2020/12/20 03:44:48;;;;;;;13.13;6.88;;;;;;;7.14;100.00;100848.25;4948580;28;20043;-53
2020/12/20 03:47:16;;;;;;;19.70;5.70;;;;;;;7.16;100.00;100844.47;4945944;28;20490;-50
2020/12/20 03:49:43;;;;;;;21.45;5.82;;;;;;;7.10;100.00;100837.06;4947786;28;20069;-50
2020/12/20 03:52:10;;;;;;;18.55;7.07;;;;;;;7.15;100.00;100832.16;4945889;28;20052;-54
2020/12/20 03:54:37;;;;;;;17.17;7.63;;;;;;;7.12;100.00;100824.50;4951257;28;20055;-51
2020/12/20 03:57:04;;;;;;;18.20;7.05;;;;;;;7.28;100.00;100831.06;4948314;28;20043;-51
2020/12/20 03:59:31;;;;;;;12.65;5.70;;;;;;;7.26;100.00;100836.50;4952382;28;20058;-50
2020/12/20 04:01:58;;;;;;;15.65;5.97;;;;;;;7.30;100.00;100834.41;4948882;28;20050;-51
2020/12/20 04:04:26;;;;;;;12.95;5.70;;;;;;;7.36;100.00;100828.53;4950940;28;20439;-52
2020/12/20 04:06:53;;;;;;;31.08;6.85;;;;;;;7.29;100.00;100836.22;4947827;28;20043;-51
2020/12/20 04:09:20;;;;;;;16.92;6.65;;;;;;;7.36;100.00;100836.50;4947062;28;20066;-51
2020/12/20 04:11:46;;;;;;;15.18;5.38;;;;;;;7.34;100.00;100838.44;4950297;28;20051;-51
2020/12/20 04:14:13;;;;;;;16.58;5.03;;;;;;;7.32;100.00;100835.94;4947262;28;20138;-51
2020/12/20 04:16:40;;;;;;;19.02;5.90;;;;;;;7.26;100.00;100827.69;4948526;28;20062;-50
2020/12/20 04:19:07;;;;;;;16.15;5.38;;;;;;;7.25;100.00;100829.50;4946021;28;20047;-50
2020/12/20 04:21:35;;;;;;;20.25;6.25;;;;;;;7.21;100.00;100830.78;4946980;28;20063;-54
2020/12/20 04:24:02;;;;;;;16.58;5.22;;;;;;;7.12;100.00;100827.16;4942894;28;20043;-50
2020/12/20 04:26:29;;;;;;;17.65;5.47;;;;;;;7.16;100.00;100817.91;4949819;28;20055;-50
2020/12/20 04:29:01;;;;;;;13.13;5.28;;;;;;;7.19;100.00;100828.25;4946071;28;20039;-50
2020/12/20 04:31:28;;;;;;;19.65;5.25;;;;;;;7.10;100.00;100818.47;4950141;28;20100;-51
2020/12/20 04:33:56;;;;;;;17.05;5.60;;;;;;;7.11;100.00;100828.13;4943446;28;20081;-51
2020/12/20 04:36:23;;;;;;;13.73;5.28;;;;;;;7.06;100.00;100827.72;4946566;28;20047;-53
2020/12/20 04:38:51;;;;;;;19.85;6.38;;;;;;;7.02;100.00;100834.28;4945713;28;20051;-52
2020/12/20 04:41:21;;;;;;;16.55;4.70;;;;;;;6.85;100.00;100831.31;4948556;28;20965;-51
2020/12/20 04:43:48;;;;;;;15.18;5.20;;;;;;;6.87;100.00;100829.34;4944250;28;20455;-52
2020/12/20 04:46:16;;;;;;;13.95;5.75;;;;;;;6.80;100.00;100828.25;4946197;28;20039;-51
2020/12/20 04:48:44;;;;;;;17.13;5.57;;;;;;;6.74;100.00;100833.28;4948289;28;20047;-50
2020/12/20 04:51:12;;;;;;;14.88;5.32;;;;;;;6.69;100.00;100844.28;4948859;28;20404;-52
2020/12/20 04:53:39;;;;;;;21.42;5.68;;;;;;;6.65;100.00;100841.09;4949147;28;20047;-51
2020/12/20 04:56:08;;;;;;;13.77;5.88;;;;;;;6.53;100.00;100850.97;4949669;28;20050;-53
2020/12/20 04:58:36;;;;;;;14.48;5.50;;;;;;;6.53;100.00;100848.34;4945741;28;20301;-51
2020/12/20 05:01:05;;;;;;;12.80;5.72;;;;;;;6.49;100.00;100846.94;4947428;28;20050;-50
2020/12/20 05:03:32;;;;;;;14.88;5.82;;;;;;;6.53;100.00;100842.16;4945961;28;20050;-49
2020/12/20 05:05:59;;;;;;;10.20;4.97;;;;;;;6.36;100.00;100856.91;4945518;28;20583;-51
2020/12/20 05:08:26;;;;;;;18.42;5.53;;;;;;;6.27;100.00;100847.97;4945841;28;20054;-50
2020/12/20 05:10:53;;;;;;;19.80;6.22;;;;;;;6.36;100.00;100854.25;4949572;28;20332;-50
2020/12/20 05:13:22;;;;;;;17.42;5.95;;;;;;;6.31;100.00;100852.03;4947313;28;20051;-51
2020/12/20 05:15:50;;;;;;;20.75;5.60;;;;;;;6.23;100.00;100848.38;4945830;28;20039;-54
2020/12/20 05:18:17;;;;;;;16.80;6.78;;;;;;;6.24;100.00;100853.53;4950346;28;20043;-54
2020/12/20 05:20:46;;;;;;;23.70;8.20;;;;;;;6.36;100.00;100851.63;4950505;28;20469;-51
2020/12/20 05:23:14;;;;;;;16.67;6.68;;;;;;;6.36;100.00;100848.97;4946877;28;20043;-51
2020/12/20 05:25:42;;;;;;;17.63;6.60;;;;;;;6.43;100.00;100858.06;4945742;28;20466;-50
2020/12/20 05:28:11;;;;;;;14.63;6.40;;;;;;;6.44;100.00;100857.09;4946714;28;20276;-51
2020/12/20 05:30:39;;;;;;;13.07;5.80;;;;;;;6.52;100.00;100856.41;4950427;28;20051;-52
2020/12/20 05:33:07;;;;;;;15.38;6.32;;;;;;;6.48;100.00;100849.72;4947822;28;20501;-51
2020/12/20 05:35:35;;;;;;;17.77;6.43;;;;;;;6.62;100.00;100856.44;4946830;28;20078;-50
2020/12/20 05:38:02;;;;;;;26.45;7.47;;;;;;;6.48;100.00;100855.84;4946555;28;20058;-50
2020/12/20 05:40:31;;;;;;;18.40;6.13;;;;;;;6.47;100.00;100848.84;4946661;28;20379;-51
2020/12/20 05:43:00;;;;;;;17.75;5.63;;;;;;;6.50;100.00;100850.41;4947104;28;20039;-51
2020/12/20 05:45:29;;;;;;;23.30;6.80;;;;;;;6.49;100.00;100857.53;4947713;28;20039;-50
2020/12/20 05:47:57;;;;;;;23.70;7.13;;;;;;;6.38;100.00;100849.69;4945207;28;20047;-50
2020/12/20 05:50:28;;;;;;;14.00;5.60;;;;;;;6.43;100.00;100852.75;4946096;28;20055;-50
2020/12/20 05:53:03;;;;;;;23.45;6.93;;;;;;;6.58;100.00;100852.38;4944096;28;20106;-52
2020/12/20 05:55:40;;;;;;;20.40;5.63;;;;;;;6.46;100.00;100854.31;4943983;28;20047;-50
2020/12/20 05:58:11;;;;;;;17.85;5.60;;;;;;;6.61;100.00;100852.94;4945765;28;20357;-50
2020/12/20 06:00:39;;;;;;;14.27;6.50;;;;;;;6.55;100.00;100856.97;4951006;28;20439;-53
2020/12/20 06:03:07;;;;;;;15.30;5.82;;;;;;;6.58;100.00;100853.22;4942743;28;20058;-51
2020/12/20 06:05:36;;;;;;;17.20;6.68;;;;;;;6.70;100.00;100868.03;4948198;28;20051;-50
2020/12/20 06:08:08;;;;;;;11.80;5.88;;;;;;;6.64;100.00;100859.81;4943474;28;20061;-52
2020/12/20 06:10:38;;;;;;;18.13;5.68;;;;;;;6.67;100.00;100864.81;4947518;28;20051;-50
2020/12/20 06:13:07;;;;;;;12.02;5.40;;;;;;;6.65;100.00;100866.75;4942722;28;20051;-50
2020/12/20 06:15:37;;;;;;;16.95;6.25;;;;;;;6.64;100.00;100867.75;4948030;28;20047;-51
2020/12/20 06:18:08;;;;;;;17.42;6.72;;;;;;;6.53;100.00;100869.56;4943205;28;20047;-50
2020/12/20 06:20:49;;;;;;;20.67;6.13;;;;;;;6.60;100.00;100866.34;4950165;28;20043;-51
2020/12/20 06:23:19;;;;;;;19.38;6.72;;;;;;;6.56;100.00;100873.72;4944305;28;20043;-52
2020/12/20 06:25:47;;;;;;;26.75;8.05;;;;;;;6.66;100.00;100876.41;4944365;28;20078;-53
2020/12/20 06:28:16;;;;;;;12.88;5.82;;;;;;;6.75;100.00;100883.56;4950769;28;20050;-50
2020/12/20 06:30:43;;;;;;;23.50;7.53;;;;;;;6.79;100.00;100889.44;4948306;28;20444;-52
2020/12/20 06:33:17;;;;;;;18.08;7.78;;;;;;;6.68;100.00;100877.97;4946000;28;20693;-53
2020/12/20 06:35:46;;;;;;;21.73;8.63;;;;;;;6.65;100.00;100893.31;4944259;28;20091;-51
2020/12/20 06:38:13;;;;;;;20.25;6.80;;;;;;;6.70;100.00;100896.41;4946421;28;20058;-55
2020/12/20 06:40:41;;;;;;;17.85;7.78;;;;;;;6.63;100.00;100880.16;4944765;28;20089;-51
2020/12/20 06:43:09;;;;;;;19.35;6.57;;;;;;;6.60;100.00;100888.41;4943879;28;20051;-51
2020/12/20 06:45:44;;;;;;;15.93;7.47;;;;;;;6.74;100.00;100891.66;4950423;28;20047;-52
2020/12/20 06:48:13;;;;;;;15.15;7.32;;;;;;;6.80;100.00;100897.25;4943871;28;20078;-54
2020/12/20 06:50:42;;;;;;;21.13;7.55;;;;;;;6.88;100.00;100900.06;4946102;28;20051;-53
2020/12/20 06:53:09;;;;;;;21.45;7.88;;;;;;;6.96;100.00;100906.50;4944523;28;20360;-52
2020/12/20 06:55:36;;;;;;;18.10;6.43;;;;;;;6.91;100.00;100903.44;4949192;28;20168;-52
2020/12/20 06:58:14;;;;;;;11.90;5.75;;;;;;;6.95;100.00;100908.34;4945522;28;20317;-52
2020/12/20 07:00:46;;;;;;;25.48;8.40;;;;;;;6.88;100.00;100909.84;4950984;28;20051;-53
2020/12/20 07:03:36;;;;;;;25.25;7.70;;;;;;;6.85;100.00;100910.13;4944541;28;20051;-52
2020/12/20 07:06:14;;;;;;;28.33;8.50;;;;;;;6.94;100.00;100917.25;4935177;28;20106;-52
2020/12/20 07:08:57;;;;;;;21.80;8.07;;;;;;;6.93;100.00;100918.22;4946674;28;20044;-51
2020/12/20 07:11:25;;;;;;;16.92;6.78;;;;;;;6.82;100.00;100921.00;4946434;28;20047;-50
2020/12/20 07:13:54;;;;;;;16.83;7.13;;;;;;;6.89;100.00;100923.00;4944205;28;20055;-50
2020/12/20 07:16:22;;;;;;;23.88;7.70;;;;;;;6.86;100.00;100915.31;4945686;28;20205;-52
2020/12/20 07:18:57;;;;;;;25.02;7.03;;;;;;;6.91;100.00;100920.19;4927473;29;20052;-53
2020/12/20 07:21:39;;;;;;;21.25;7.70;;;;;;;6.89;100.00;100925.66;4951133;28;20051;-50
2020/12/20 07:24:12;;;;;;;25.73;9.23;;;;;;;7.00;100.00;100929.16;4943883;28;20455;-52
2020/12/20 07:26:40;;;;;;;28.63;7.47;;;;;;;7.01;100.00;100933.50;4948435;28;20048;-50
2020/12/20 07:29:07;;;;;;;17.42;7.35;;;;;;;7.02;100.00;100924.56;4945657;28;20055;-51
2020/12/20 07:31:36;;;;;;;20.90;7.85;;;;;;;6.96;100.00;100922.44;4943935;28;20051;-50
2020/12/20 07:34:05;;;;;;;16.88;7.22;;;;;;;6.95;100.00;100937.53;4945049;28;20061;-50
2020/12/20 07:36:32;;;;;;;21.52;8.23;;;;;;;6.97;100.00;100948.03;4945691;28;20218;-51
2020/12/20 07:38:59;;;;;;;16.25;7.50;;;;;;;6.95;100.00;100944.69;4947424;28;20346;-50
2020/12/20 07:41:26;;;;;;;23.90;8.82;;;;;;;6.89;100.00;100952.19;4948035;28;20055;-52
2020/12/20 07:43:53;;;;;;;15.18;7.90;;;;;;;7.08;100.00;100953.22;4944831;28;20103;-50
2020/12/20 07:46:22;;;;;;;15.38;6.22;;;;;;;7.00;100.00;100953.06;4945631;28;20047;-50
2020/12/20 07:48:49;;;;;;;15.60;7.25;;;;;;;7.13;100.00;100960.75;4945191;28;20039;-49
2020/12/20 07:51:18;;;;;;;19.88;6.82;;;;;;;7.17;100.00;100947.09;4950001;28;20047;-53
2020/12/20 07:53:47;;;;;;;16.48;6.65;;;;;;;7.13;100.00;100960.75;4941702;28;20052;-51
2020/12/20 07:56:22;;;;;;;20.67;7.78;;;;;;;7.18;100.00;100959.38;4948076;28;20039;-52
2020/12/20 07:58:49;;;;;;;18.25;6.75;;;;;;;7.08;100.00;100963.84;4943863;28;20047;-50
2020/12/20 08:01:16;;;;;;;18.45;7.35;;;;;;;7.12;100.00;100965.25;4948908;28;20140;-52
2020/12/20 08:04:03;;;;;;;18.95;8.02;;;;;;;7.14;100.00;100962.44;4943333;28;20036;-52
2020/12/20 08:06:32;;;;;;;20.15;7.57;;;;;;;7.17;100.00;100973.66;4948154;28;20055;-53
2020/12/20 08:09:08;;;;;;;23.65;8.45;;;;;;;7.18;100.00;100971.81;4949273;28;20040;-51
2020/12/20 08:11:35;;;;;;;20.45;7.75;;;;;;;7.10;100.00;100977.81;4946269;28;20467;-50
2020/12/20 08:14:04;;;;;;;18.98;6.47;;;;;;;7.18;100.00;100993.06;4944936;28;20051;-51
2020/12/20 08:16:32;;;;;;;22.45;8.52;;;;;;;7.19;100.00;100982.31;4946260;28;20043;-50
2020/12/20 08:19:01;;;;;;;18.55;7.20;;;;;;;7.27;100.00;100986.09;4947616;28;20047;-50
2020/12/20 08:21:49;;;;;;;18.23;7.43;;;;;;;7.30;100.00;100986.69;4950187;28;20051;-53
2020/12/20 08:24:16;;;;;;;17.35;6.82;;;;;;;7.35;100.00;100994.22;4946617;28;20355;-53
2020/12/20 08:26:46;;;;;;;20.27;6.60;;;;;;;7.26;100.00;100993.25;4952175;28;20428;-52
2020/12/20 08:29:14;;;;;;;16.92;6.22;;;;;;;7.31;100.00;100984.84;4947566;28;20043;-52
2020/12/20 08:31:44;;;;;;;15.73;6.60;;;;;;;7.21;100.00;100982.19;4947968;28;20439;-52
2020/12/20 08:34:19;;;;;;;18.92;6.43;;;;;;;7.28;100.00;100982.47;4948726;28;21321;-51
2020/12/20 08:36:48;;;;;;;21.58;6.60;;;;;;;7.33;100.00;100982.88;4946440;28;20039;-54
2020/12/20 08:39:15;;;;;;;19.30;8.15;;;;;;;7.33;100.00;100989.06;4948148;28;20050;-50
2020/12/20 08:41:43;;;;;;;22.63;8.32;;;;;;;7.35;100.00;100987.09;4949997;28;20043;-51
2020/12/20 08:44:14;;;;;;;18.75;7.75;;;;;;;7.45;100.00;100995.06;4947872;28;20381;-50
2020/12/20 08:46:43;;;;;;;20.52;6.78;;;;;;;7.47;100.00;100989.63;4949291;28;20051;-50
2020/12/20 08:49:15;;;;;;;16.35;6.78;;;;;;;7.46;100.00;100999.41;4951260;28;20079;-51
2020/12/20 08:51:43;;;;;;;16.67;6.45;;;;;;;7.53;100.00;101005.84;4948478;28;20055;-53
2020/12/20 08:54:27;;;;;;;25.42;6.85;;;;;;;7.57;100.00;101001.94;4949922;28;20165;-50
2020/12/20 08:56:59;;;;;;;27.08;10.02;;;;;;;7.67;100.00;101009.06;4950450;28;20447;-52
2020/12/20 08:59:31;;;;;;;14.13;6.50;;;;;;;7.68;100.00;101003.63;4946930;28;20054;-50
2020/12/20 09:01:59;;;;;;;15.48;6.57;;;;;;;7.69;100.00;101007.13;4946092;28;20054;-50
2020/12/20 09:04:30;;;;;;;20.33;8.15;;;;;;;7.73;100.00;101016.50;4947964;28;20063;-50
2020/12/20 09:07:10;;;;;;;17.42;6.68;;;;;;;7.78;100.00;101003.59;4946448;28;20331;-51
2020/12/20 09:09:38;;;;;;;21.98;7.93;;;;;;;7.83;100.00;101011.19;4950398;28;20043;-50
2020/12/20 09:12:17;;;;;;;15.55;6.43;;;;;;;7.78;100.00;101008.94;4946503;28;20185;-51
2020/12/20 09:15:03;;;;;;;20.33;5.57;;;;;;;7.82;100.00;101009.50;4946762;28;20412;-52
2020/12/20 09:17:31;;;;;;;25.58;6.57;;;;;;;7.74;100.00;101007.56;4944195;28;20040;-50
2020/12/20 09:19:59;;;;;;;15.90;5.45;;;;;;;7.84;100.00;101007.53;4944179;28;20331;-52
2020/12/20 09:22:50;;;;;;;18.30;7.05;;;;;;;7.89;100.00;101000.81;4943563;28;20313;-51
2020/12/20 09:25:30;;;;;;;18.35;5.90;;;;;;;7.77;100.00;101009.94;4946747;28;20063;-52
2020/12/20 09:27:59;;;;;;;21.13;6.85;;;;;;;7.86;100.00;101016.22;4949705;28;20047;-52
2020/12/20 09:30:34;;;;;;;14.57;6.05;;;;;;;7.77;100.00;101001.94;4946542;28;20040;-51
2020/12/20 09:33:01;;;;;;;;;;;;;;;7.74;100.00;101010.22;4944073;28;20047;-51
2020/12/20 09:35:28;;;;;;;15.00;6.65;;;;;;;7.76;100.00;101005.59;4946302;28;19934;-50
2020/12/20 09:37:55;;;;;;;16.55;6.57;;;;;;;7.86;100.00;101010.91;4948682;28;20063;-50
2020/12/20 09:40:23;;;;;;;14.63;7.00;;;;;;;7.83;100.00;101004.03;4944846;28;20048;-53
2020/12/20 09:42:50;;;;;;;12.52;6.22;;;;;;;7.86;100.00;101016.22;4946766;28;20304;-51
2020/12/20 09:45:17;;;;;;;18.73;5.60;;;;;;;7.92;100.00;101013.84;4952386;28;20114;-49
2020/12/20 09:47:45;;;;;;;21.02;6.07;;;;;;;8.03;100.00;101014.66;4945763;28;20043;-52
2020/12/20 09:50:12;;;;;;;18.08;6.60;;;;;;;8.25;100.00;101027.66;4949469;28;20182;-52
2020/12/20 09:52:39;;;;;;;18.88;5.90;;;;;;;8.23;100.00;101021.63;4947524;28;20040;-50
2020/12/20 09:55:07;;;;;;;21.33;6.75;;;;;;;8.18;100.00;101031.88;4945515;28;20065;-50
2020/12/20 09:57:35;;;;;;;13.55;5.28;;;;;;;8.22;99.47;101027.94;4947829;28;20039;-50
2020/12/20 10:00:04;;;;;;;18.25;6.18;;;;;;;8.23;99.76;101039.41;4944265;28;20048;-50
2020/12/20 10:02:31;;;;;;;18.80;5.55;;;;;;;8.19;99.49;101022.06;4943962;28;20062;-50
2020/12/20 10:04:58;;;;;;;17.55;6.55;;;;;;;8.21;99.43;101036.91;4947397;28;20039;-50
2020/12/20 10:07:24;;;;;;;19.80;6.60;;;;;;;8.32;99.06;101035.06;4947610;28;20307;-50
2020/12/20 10:09:51;;;;;;;20.50;6.72;;;;;;;8.39;98.88;101028.19;4940904;28;20070;-51
2020/12/20 10:12:18;;;;;;;19.02;5.95;;;;;;;8.47;98.48;101025.69;4947917;28;20053;-50
2020/12/20 10:14:46;;;;;;;24.25;8.18;;;;;;;8.50;98.31;101033.38;4946559;28;20055;-50
2020/12/20 10:17:13;;;;;;;13.82;5.95;;;;;;;8.63;97.80;101022.41;4945548;28;20043;-49
2020/12/20 10:19:40;;;;;;;15.50;6.60;;;;;;;8.75;96.92;101036.38;4944908;28;20117;-50
2020/12/20 10:22:07;;;;;;;14.75;5.32;;;;;;;8.75;96.13;101028.41;4945164;28;20039;-53
2020/12/20 10:24:34;;;;;;;17.98;6.65;;;;;;;8.74;96.55;101029.38;4946462;28;20110;-50
2020/12/20 10:27:03;;;;;;;19.13;6.55;;;;;;;8.83;95.97;101036.50;4947319;28;20051;-51
2020/12/20 10:29:30;;;;;;;18.75;5.00;;;;;;;8.78;96.18;101044.09;4949094;28;20070;-49
2020/12/20 10:31:58;;;;;;;19.02;5.43;;;;;;;8.75;96.10;101036.38;4944194;28;20059;-49
2020/12/20 10:34:25;;;;;;;19.00;5.75;;;;;;;8.76;96.01;101041.56;4947858;28;20082;-52
2020/12/20 10:36:52;;;;;;;14.70;5.53;;;;;;;8.95;95.29;101047.81;4948688;28;20474;-50
2020/12/20 10:39:19;;;;;;;31.70;7.18;;;;;;;8.87;95.69;101042.34;4948556;28;20047;-50
2020/12/20 10:41:46;;;;;;;25.77;6.43;;;;;;;9.02;95.64;101042.72;4945106;28;20094;-51
2020/12/20 10:44:13;;;;;;;17.58;6.03;;;;;;;8.99;94.97;101043.00;4946293;28;20053;-53
2020/12/20 10:46:41;;;;;;;19.27;5.80;;;;;;;8.98;94.16;101044.00;4947275;28;20086;-50
2020/12/20 10:49:08;;;;;;;15.45;5.03;;;;;;;9.04;93.29;101033.59;4946242;28;20449;-50
2020/12/20 10:51:35;;;;;;;18.33;5.15;;;;;;;9.14;93.05;101036.19;4947998;28;20209;-51
2020/12/20 10:54:02;;;;;;;13.77;5.00;;;;;;;9.04;92.18;101043.41;4942398;28;20048;-52
2020/12/20 10:56:29;;;;;;;14.10;4.72;;;;;;;9.17;91.94;101041.25;4946720;28;20129;-52
2020/12/20 10:58:56;;;;;;;16.35;5.45;;;;;;;9.32;91.92;101051.41;4944314;28;20039;-51
2020/12/20 11:01:23;;;;;;;13.45;4.82;;;;;;;9.19;92.29;101055.25;4948872;28;20055;-51
2020/12/20 11:03:50;;;;;;;14.73;5.95;;;;;;;9.16;91.21;101050.22;4943105;28;20090;-52
2020/12/20 11:06:19;;;;;;;13.10;4.75;;;;;;;9.34;90.95;101060.91;4947016;28;20043;-49
2020/12/20 11:08:46;;;;;;;18.83;4.82;;;;;;;9.27;91.20;101046.50;4947024;28;20057;-50
2020/12/20 11:11:14;;;;;;;17.73;4.80;;;;;;;9.11;91.50;101049.81;4945802;28;20435;-50
2020/12/20 11:13:43;;;;;;;13.30;4.85;;;;;;;9.00;92.16;101060.66;4942587;28;20043;-53
2020/12/20 11:16:14;;;;;;;13.25;5.25;;;;;;;8.89;93.06;101051.88;4948607;28;20039;-50
2020/12/20 11:18:45;;;;;;;16.55;5.68;;;;;;;9.13;92.48;101046.03;4948680;28;20078;-51
2020/12/20 11:21:13;;;;;;;16.05;5.78;;;;;;;9.10;91.60;101032.16;4945548;28;20053;-52
2020/12/20 11:23:41;;;;;;;14.32;4.90;;;;;;;9.11;91.67;101020.50;4943541;28;20054;-49
2020/12/20 11:26:11;;;;;;;22.70;6.53;;;;;;;9.22;91.46;101032.81;4945115;28;20343;-50